Time;durP1;ratioP1;P1;durP2;ratioP2;P2;SDS_P1;SDS_P2;PMS_P1;PMS_P2;Temp;Humidity;BMP_temperature;BMP_pressure;BME280_temperature;BME280_humidity;BME280_pressure;Samples;Min_cycle;Max_cycle;Signal;HPM_P1;HPM_P2
2021/12/10 00:08:22;;;;;;;15.55;6.47;;;5.00;99.90;;;;;;5097792;28;20022;-53
2021/12/10 00:10:53;;;;;;;16.70;6.55;;;5.00;99.90;;;;;;5097306;28;20028;-53
2021/12/10 00:13:19;;;;;;;16.48;7.32;;;5.00;99.90;;;;;;5097479;28;20028;-55
2021/12/10 00:15:44;;;;;;;18.48;6.68;;;5.00;99.90;;;;;;5096841;28;20028;-53
2021/12/10 00:18:14;;;;;;;14.77;7.03;;;5.00;99.90;;;;;;5096821;28;20099;-52
2021/12/10 00:20:41;;;;;;;16.98;7.43;;;5.10;99.90;;;;;;5078588;28;20027;-53
2021/12/10 00:23:14;;;;;;;12.98;6.93;;;5.10;99.90;;;;;;5096540;28;20492;-51
2021/12/10 00:25:45;;;;;;;16.92;7.20;;;5.10;99.90;;;;;;5096858;28;20059;-55
2021/12/10 00:28:17;;;;;;;14.48;6.93;;;5.00;99.90;;;;;;5096640;28;20102;-52
2021/12/10 00:31:17;;;;;;;10.77;6.53;;;5.00;99.90;;;;;;5096617;28;20039;-52
2021/12/10 00:34:17;;;;;;;11.48;7.18;;;5.00;99.90;;;;;;5096263;28;20081;-55
2021/12/10 00:36:44;;;;;;;15.65;7.45;;;5.00;99.90;;;;;;5089723;28;20128;-52
2021/12/10 00:39:14;;;;;;;21.65;7.10;;;5.10;99.90;;;;;;5096478;28;20388;-54
2021/12/10 00:41:40;;;;;;;14.55;7.07;;;5.00;99.90;;;;;;5096244;28;20131;-52
2021/12/10 00:44:06;;;;;;;15.02;7.45;;;5.10;99.90;;;;;;5096573;28;20099;-52
2021/12/10 00:46:32;;;;;;;14.63;7.30;;;5.00;99.90;;;;;;5095921;28;20032;-52
2021/12/10 00:48:58;;;;;;;15.30;7.50;;;5.00;99.90;;;;;;5077788;28;20085;-53
2021/12/10 00:51:24;;;;;;;13.18;6.75;;;5.00;99.90;;;;;;5095937;28;20040;-53
2021/12/10 00:53:52;;;;;;;16.15;8.00;;;5.00;99.90;;;;;;5095545;28;20124;-52
2021/12/10 00:56:18;;;;;;;16.17;6.88;;;5.00;99.90;;;;;;5077390;28;20090;-52
2021/12/10 00:58:44;;;;;;;12.85;7.20;;;5.00;99.90;;;;;;5095659;28;20453;-54
2021/12/10 01:01:15;;;;;;;20.63;7.47;;;5.00;99.90;;;;;;5095250;28;20130;-56
2021/12/10 01:03:46;;;;;;;11.82;6.78;;;5.00;99.90;;;;;;5095062;28;20032;-55
2021/12/10 01:06:14;;;;;;;21.05;8.25;;;5.00;99.90;;;;;;5095734;28;20035;-54
2021/12/10 01:08:43;;;;;;;12.50;6.95;;;5.00;99.90;;;;;;5077224;28;20036;-53
2021/12/10 01:11:32;;;;;;;15.50;6.90;;;5.00;99.90;;;;;;5095405;28;20515;-53
2021/12/10 01:14:12;;;;;;;13.68;7.72;;;5.00;99.90;;;;;;5095185;28;20024;-55
2021/12/10 01:27:32;;;;;;;16.60;7.18;;;5.00;99.90;;;;;;5095019;28;20024;-53
2021/12/10 01:30:06;;;;;;;12.77;6.88;;;4.90;99.90;;;;;;5076863;28;20020;-52
2021/12/10 01:32:36;;;;;;;16.73;7.93;;;4.90;99.90;;;;;;5094870;28;20123;-55
2021/12/10 01:35:04;;;;;;;16.88;7.53;;;4.90;99.90;;;;;;5095156;28;20055;-54
2021/12/10 01:37:29;;;;;;;13.27;7.07;;;4.90;99.90;;;;;;5094618;28;20035;-56
2021/12/10 01:39:56;;;;;;;12.13;7.38;;;4.90;99.90;;;;;;5094953;28;20458;-56
2021/12/10 01:44:52;;;;;;;16.88;8.30;;;4.90;99.90;;;;;;5094749;28;20024;-52
2021/12/10 01:47:21;;;;;;;13.25;6.60;;;4.90;99.90;;;;;;5095000;28;20020;-56
2021/12/10 01:49:47;;;;;;;15.95;6.75;;;4.90;99.90;;;;;;5094611;28;20040;-56
2021/12/10 01:52:15;;;;;;;15.48;6.95;;;4.90;99.90;;;;;;5094505;28;20020;-55
2021/12/10 01:54:45;;;;;;;18.20;7.75;;;4.90;99.90;;;;;;5094630;28;20070;-53
2021/12/10 01:57:13;;;;;;;15.30;7.05;;;4.90;99.90;;;;;;5095277;28;20020;-54
2021/12/10 01:59:41;;;;;;;12.23;7.25;;;4.90;99.90;;;;;;5076018;28;20027;-55
2021/12/10 02:02:29;;;;;;;15.70;7.63;;;4.90;99.90;;;;;;5094747;28;20024;-55
2021/12/10 02:04:55;;;;;;;16.23;8.02;;;4.90;99.90;;;;;;5076082;28;20020;-52
2021/12/10 02:07:24;;;;;;;13.35;8.02;;;4.90;99.90;;;;;;5094828;28;20047;-53
2021/12/10 02:09:50;;;;;;;14.52;7.05;;;4.80;99.90;;;;;;5095217;28;20069;-55
2021/12/10 02:12:18;;;;;;;12.75;7.25;;;4.80;99.90;;;;;;5094633;28;20024;-53
2021/12/10 02:14:57;;;;;;;13.75;6.82;;;4.90;99.90;;;;;;5094736;28;20055;-54
2021/12/10 02:17:24;;;;;;;14.07;7.55;;;4.90;99.90;;;;;;5095654;28;20073;-54
2021/12/10 02:19:49;;;;;;;23.23;8.18;;;4.90;99.90;;;;;;5094359;28;20023;-54
2021/12/10 02:22:15;;;;;;;14.52;7.60;;;4.90;99.90;;;;;;5094110;28;20082;-53
2021/12/10 02:24:40;;;;;;;19.60;8.30;;;4.90;99.90;;;;;;5094451;28;20028;-52
2021/12/10 02:27:07;;;;;;;13.60;7.22;;;4.80;99.90;;;;;;5094480;28;20048;-53
2021/12/10 02:29:38;;;;;;;13.80;7.38;;;4.80;99.90;;;;;;5094570;28;20020;-54
2021/12/10 02:32:07;;;;;;;16.80;8.17;;;4.90;99.90;;;;;;5093986;28;20430;-54
2021/12/10 02:34:33;;;;;;;15.63;7.85;;;4.90;99.90;;;;;;5094000;28;20017;-53
2021/12/10 02:36:59;;;;;;;12.48;7.55;;;4.90;99.90;;;;;;5093888;28;20431;-53
2021/12/10 02:39:26;;;;;;;14.73;7.78;;;4.90;99.90;;;;;;5094102;28;20164;-54
2021/12/10 02:41:52;;;;;;;17.35;8.45;;;4.90;99.90;;;;;;5094002;28;20024;-54
2021/12/10 02:44:22;;;;;;;16.23;7.55;;;4.90;99.90;;;;;;5093488;28;20024;-52
2021/12/10 02:46:48;;;;;;;16.77;7.55;;;4.90;99.90;;;;;;5093546;28;20484;-55
2021/12/10 02:49:15;;;;;;;13.70;7.00;;;4.90;99.90;;;;;;5075420;28;20139;-54
2021/12/10 02:51:42;;;;;;;16.45;8.00;;;4.90;99.90;;;;;;5093622;28;20055;-52
2021/12/10 02:54:10;;;;;;;15.30;7.78;;;4.90;99.90;;;;;;5093473;28;20031;-53
2021/12/10 02:56:37;;;;;;;15.93;8.05;;;4.90;99.90;;;;;;5093631;28;20054;-55
2021/12/10 02:59:04;;;;;;;12.98;7.40;;;4.90;99.90;;;;;;5093570;28;20023;-54
2021/12/10 03:01:40;;;;;;;14.77;7.88;;;4.90;99.90;;;;;;5093473;28;20047;-54
2021/12/10 03:04:09;;;;;;;13.90;7.50;;;4.90;99.90;;;;;;5093752;28;20074;-54
2021/12/10 03:06:44;;;;;;;16.70;7.53;;;4.90;99.90;;;;;;5093464;28;20035;-52
2021/12/10 03:09:11;;;;;;;13.40;7.60;;;4.90;99.90;;;;;;5093563;28;20021;-55
2021/12/10 03:11:39;;;;;;;17.00;8.23;;;4.90;99.90;;;;;;5092713;28;20119;-54
2021/12/10 03:14:11;;;;;;;14.75;8.68;;;4.90;99.90;;;;;;5093326;28;20055;-51
2021/12/10 03:16:40;;;;;;;21.73;8.13;;;4.90;99.90;;;;;;5093444;28;20016;-55
2021/12/10 03:19:06;;;;;;;14.90;8.10;;;4.90;99.90;;;;;;5093117;28;20017;-56
2021/12/10 03:21:34;;;;;;;14.20;7.50;;;4.90;99.90;;;;;;5093090;28;20020;-51
2021/12/10 03:24:00;;;;;;;19.10;7.68;;;4.80;99.90;;;;;;5092925;28;20022;-51
2021/12/10 03:26:26;;;;;;;17.45;8.07;;;4.80;99.90;;;;;;5093267;28;20396;-55
2021/12/10 03:28:53;;;;;;;22.10;8.57;;;4.80;99.90;;;;;;5094495;28;20047;-52
2021/12/10 03:31:20;;;;;;;20.58;8.38;;;4.80;99.90;;;;;;5095090;28;20043;-51
2021/12/10 03:33:47;;;;;;;16.27;8.23;;;4.80;99.90;;;;;;5075648;28;20435;-52
2021/12/10 03:36:14;;;;;;;16.40;7.80;;;4.90;99.90;;;;;;5093059;28;20028;-52
2021/12/10 03:38:40;;;;;;;15.77;8.27;;;4.90;99.90;;;;;;5093414;28;20044;-52
2021/12/10 03:41:07;;;;;;;16.85;7.82;;;4.80;99.90;;;;;;5092886;28;20016;-51
2021/12/10 03:43:33;;;;;;;14.18;7.85;;;4.80;99.90;;;;;;5075042;28;20368;-53
2021/12/10 03:46:00;;;;;;;16.00;9.00;;;4.80;99.90;;;;;;5092424;28;20016;-50
2021/12/10 03:48:30;;;;;;;17.00;7.80;;;4.90;99.90;;;;;;5092750;28;20082;-49
2021/12/10 03:50:57;;;;;;;19.38;9.20;;;4.90;99.90;;;;;;5066641;22;20045;-72
2021/12/10 03:53:23;;;;;;;19.23;8.35;;;4.80;99.90;;;;;;5058054;28;20047;-71
2021/12/10 03:55:49;;;;;;;14.45;8.10;;;4.80;99.90;;;;;;5058864;28;20036;-70
2021/12/10 03:58:17;;;;;;;20.00;9.05;;;4.80;99.90;;;;;;5060791;28;20033;-69
2021/12/10 04:00:47;;;;;;;16.33;9.43;;;4.80;99.90;;;;;;5044173;28;20047;-71
2021/12/10 04:03:15;;;;;;;20.05;8.55;;;4.80;99.90;;;;;;5045293;28;20035;-70
2021/12/10 04:05:41;;;;;;;16.67;8.70;;;4.80;99.90;;;;;;5041571;28;20075;-70
2021/12/10 04:08:07;;;;;;;18.63;9.20;;;4.80;99.90;;;;;;5054870;28;20029;-69
2021/12/10 04:10:33;;;;;;;17.45;8.57;;;4.70;99.90;;;;;;5055401;28;20033;-71
2021/12/10 04:12:59;;;;;;;15.10;9.77;;;4.70;99.90;;;;;;5036893;28;20463;-70
2021/12/10 04:15:25;;;;;;;21.13;8.25;;;4.70;99.90;;;;;;5055327;28;20028;-71
2021/12/10 04:17:54;;;;;;;16.98;8.95;;;4.70;99.90;;;;;;5054465;28;20018;-70
2021/12/10 04:20:23;;;;;;;18.23;8.07;;;4.60;99.90;;;;;;5054595;28;20540;-70
2021/12/10 04:22:49;;;;;;;15.85;8.45;;;4.70;99.90;;;;;;5039049;28;20479;-70
2021/12/10 04:25:19;;;;;;;15.20;8.38;;;4.60;99.90;;;;;;5059753;28;20084;-70
2021/12/10 04:27:46;;;;;;;18.65;9.20;;;4.60;99.90;;;;;;5042215;28;20029;-71
2021/12/10 04:30:13;;;;;;;16.48;9.02;;;4.60;99.90;;;;;;5060510;28;20076;-70
2021/12/10 04:32:40;;;;;;;17.50;8.90;;;4.60;99.90;;;;;;5043590;28;20024;-70
2021/12/10 04:35:06;;;;;;;17.98;8.30;;;4.60;99.90;;;;;;5058616;28;20025;-69
2021/12/10 04:37:32;;;;;;;17.67;9.18;;;4.60;99.90;;;;;;5057873;28;20025;-72
2021/12/10 04:40:02;;;;;;;13.77;8.57;;;4.60;99.90;;;;;;5038884;28;20068;-72
2021/12/10 04:42:27;;;;;;;19.30;9.80;;;4.60;99.90;;;;;;5057282;28;20032;-72
2021/12/10 04:44:55;;;;;;;14.90;8.45;;;4.60;99.90;;;;;;5057812;28;20139;-72
2021/12/10 04:47:22;;;;;;;20.38;9.73;;;4.60;99.90;;;;;;5057371;28;20025;-71
2021/12/10 04:49:48;;;;;;;16.95;9.27;;;4.60;99.90;;;;;;5057424;28;20036;-71
2021/12/10 04:52:14;;;;;;;18.15;9.45;;;4.60;99.90;;;;;;5057362;28;20107;-72
2021/12/10 04:54:40;;;;;;;24.48;10.00;;;4.60;99.90;;;;;;5039151;28;20021;-70
2021/12/10 04:57:06;;;;;;;23.23;9.73;;;4.60;99.90;;;;;;5057279;28;20486;-72
2021/12/10 04:59:33;;;;;;;20.48;9.98;;;4.60;99.90;;;;;;5038883;28;20025;-72
2021/12/10 05:02:01;;;;;;;21.52;9.70;;;4.60;99.90;;;;;;5057395;28;20025;-72
2021/12/10 05:04:28;;;;;;;22.67;10.55;;;4.60;99.90;;;;;;5057946;28;20061;-71
2021/12/10 05:06:54;;;;;;;18.67;9.55;;;4.60;99.90;;;;;;5039818;28;20120;-70
2021/12/10 05:09:21;;;;;;;17.58;10.57;;;4.60;99.90;;;;;;5057865;28;20059;-70
2021/12/10 05:11:47;;;;;;;21.75;10.82;;;4.60;99.90;;;;;;5058087;28;20548;-70
2021/12/10 05:14:13;;;;;;;20.83;10.13;;;4.60;99.90;;;;;;5040824;28;20032;-70
2021/12/10 05:16:44;;;;;;;18.95;10.52;;;4.60;99.90;;;;;;5057281;28;20025;-70
2021/12/10 05:19:12;;;;;;;20.15;10.88;;;4.60;99.90;;;;;;5057465;28;20017;-70
2021/12/10 05:21:39;;;;;;;16.75;10.30;;;4.60;99.90;;;;;;5057251;28;20029;-70
2021/12/10 05:24:06;;;;;;;24.17;10.88;;;4.60;99.90;;;;;;5039281;28;20075;-70
2021/12/10 05:26:33;;;;;;;18.70;10.45;;;4.60;99.90;;;;;;5057793;28;20020;-70
2021/12/10 05:28:59;;;;;;;21.23;11.18;;;4.60;99.90;;;;;;5057118;28;20079;-71
2021/12/10 05:31:25;;;;;;;18.27;10.70;;;4.60;99.90;;;;;;5039458;28;20025;-71
2021/12/10 05:33:50;;;;;;;22.08;11.48;;;4.50;99.90;;;;;;5057170;28;20032;-70
2021/12/10 05:36:17;;;;;;;22.35;11.63;;;4.50;99.90;;;;;;5056648;28;20029;-70
2021/12/10 05:38:43;;;;;;;23.88;10.77;;;4.60;99.90;;;;;;5056581;28;20021;-70
2021/12/10 05:41:10;;;;;;;22.98;10.82;;;4.60;99.90;;;;;;5056686;28;20021;-70
2021/12/10 05:43:37;;;;;;;17.25;10.25;;;4.60;99.90;;;;;;5056960;28;20021;-71
2021/12/10 05:46:04;;;;;;;22.63;11.38;;;4.60;99.90;;;;;;5057357;28;20454;-71
2021/12/10 05:48:30;;;;;;;21.02;10.65;;;4.50;99.90;;;;;;5056726;28;20394;-71
2021/12/10 05:50:56;;;;;;;20.35;10.88;;;4.50;99.90;;;;;;5057058;28;20086;-71
2021/12/10 05:53:22;;;;;;;18.33;10.43;;;4.60;99.90;;;;;;5057551;28;20025;-71
2021/12/10 05:55:47;;;;;;;24.13;11.63;;;4.60;99.90;;;;;;5057474;28;20035;-71
2021/12/10 05:58:13;;;;;;;22.80;11.15;;;4.60;99.90;;;;;;5039402;28;20028;-71
2021/12/10 06:00:43;;;;;;;20.45;9.77;;;4.60;99.90;;;;;;5039221;28;20335;-70
2021/12/10 06:03:09;;;;;;;29.05;11.60;;;4.60;99.90;;;;;;5039843;28;20029;-71
2021/12/10 06:05:35;;;;;;;29.05;11.80;;;4.60;99.90;;;;;;5039194;28;20028;-70
2021/12/10 06:08:03;;;;;;;19.25;10.70;;;4.60;99.90;;;;;;5057122;28;20386;-68
2021/12/10 06:10:28;;;;;;;20.45;10.88;;;4.60;99.90;;;;;;5056564;28;20087;-68
2021/12/10 06:12:55;;;;;;;19.80;10.95;;;4.60;99.90;;;;;;5055560;28;20032;-67
2021/12/10 06:15:22;;;;;;;20.58;11.38;;;4.60;99.90;;;;;;5055883;28;20455;-70
2021/12/10 06:17:48;;;;;;;24.75;11.18;;;4.60;99.90;;;;;;5055625;28;20025;-70
2021/12/10 06:20:18;;;;;;;23.33;11.55;;;4.60;99.90;;;;;;5055505;28;20032;-71
2021/12/10 06:22:44;;;;;;;21.77;12.33;;;4.70;99.90;;;;;;5056545;28;20025;-71
2021/12/10 06:25:10;;;;;;;20.30;11.95;;;4.60;99.90;;;;;;5055472;28;20070;-71
2021/12/10 06:27:44;;;;;;;24.10;11.35;;;4.60;99.90;;;;;;5034032;28;20068;-71
2021/12/10 06:30:15;;;;;;;24.48;12.50;;;4.60;99.90;;;;;;5057428;28;20032;-70
2021/12/10 06:32:43;;;;;;;19.50;10.77;;;4.60;99.90;;;;;;5056103;28;20028;-71
2021/12/10 06:35:09;;;;;;;21.13;12.10;;;4.60;99.90;;;;;;5056430;28;20104;-71
2021/12/10 06:37:37;;;;;;;26.63;12.70;;;4.50;99.90;;;;;;5056040;28;20067;-70
2021/12/10 06:40:07;;;;;;;22.13;12.55;;;4.50;99.90;;;;;;5058316;28;20438;-73
2021/12/10 06:42:32;;;;;;;21.42;11.77;;;4.50;99.90;;;;;;5058527;28;20489;-70
2021/12/10 06:44:58;;;;;;;25.85;12.88;;;4.50;99.90;;;;;;5055522;28;20032;-70
2021/12/10 06:47:24;;;;;;;25.15;11.82;;;4.50;99.90;;;;;;5056695;28;20025;-70
2021/12/10 06:49:49;;;;;;;25.10;12.30;;;4.50;99.90;;;;;;5038062;28;20044;-70
2021/12/10 06:52:15;;;;;;;23.95;12.75;;;4.50;99.90;;;;;;5037987;28;20032;-70
2021/12/10 06:54:41;;;;;;;26.05;13.82;;;4.40;99.90;;;;;;5055402;28;20442;-70
2021/12/10 06:57:07;;;;;;;25.88;13.07;;;4.40;99.90;;;;;;5038802;28;20048;-70
2021/12/10 06:59:32;;;;;;;28.15;14.02;;;4.40;99.90;;;;;;5054976;28;20063;-70
2021/12/10 07:01:58;;;;;;;29.35;13.80;;;4.40;99.90;;;;;;5053907;28;20033;-70
2021/12/10 07:04:24;;;;;;;29.95;13.80;;;4.40;99.90;;;;;;5055001;28;20037;-69
2021/12/10 07:06:50;;;;;;;28.90;14.70;;;4.40;99.90;;;;;;5037527;28;20064;-70
2021/12/10 07:09:20;;;;;;;28.00;13.77;;;4.30;99.90;;;;;;5055215;28;20075;-69
2021/12/10 07:11:47;;;;;;;29.88;12.18;;;4.30;99.90;;;;;;5054050;28;20105;-70
2021/12/10 07:14:12;;;;;;;24.80;13.13;;;4.40;99.90;;;;;;5055478;28;20100;-69
2021/12/10 07:16:39;;;;;;;24.60;13.07;;;4.40;99.90;;;;;;5060795;28;20035;-70
2021/12/10 07:19:06;;;;;;;31.85;13.50;;;4.30;99.90;;;;;;5037147;28;20155;-70
2021/12/10 07:21:33;;;;;;;31.25;14.88;;;4.30;99.90;;;;;;5054798;28;20360;-70
2021/12/10 07:24:04;;;;;;;26.25;14.32;;;4.40;99.90;;;;;;5054602;28;20025;-70
2021/12/10 07:26:30;;;;;;;30.20;13.57;;;4.30;99.90;;;;;;5036951;28;20025;-71
2021/12/10 07:28:56;;;;;;;30.88;13.32;;;4.30;99.90;;;;;;5054415;28;20029;-70
2021/12/10 07:31:22;;;;;;;28.85;14.07;;;4.30;99.90;;;;;;5036946;28;20025;-70
2021/12/10 07:33:48;;;;;;;25.77;13.52;;;4.20;99.90;;;;;;5054946;28;20039;-70
2021/12/10 07:36:15;;;;;;;27.52;14.15;;;4.30;99.90;;;;;;5054940;28;20025;-70
2021/12/10 07:38:41;;;;;;;27.83;14.27;;;4.30;99.90;;;;;;5055196;28;20505;-70
2021/12/10 07:41:07;;;;;;;30.13;13.48;;;4.30;99.90;;;;;;5055204;28;20028;-71
2021/12/10 07:43:34;;;;;;;23.20;13.63;;;4.30;99.90;;;;;;5055429;28;20021;-71
2021/12/10 07:46:00;;;;;;;27.50;14.93;;;4.20;99.90;;;;;;5055429;28;20036;-70
2021/12/10 07:48:27;;;;;;;30.35;15.13;;;4.20;99.90;;;;;;5054568;28;20029;-69
2021/12/10 07:51:01;;;;;;;29.23;14.13;;;4.20;99.90;;;;;;5053959;28;20037;-69
2021/12/10 07:53:29;;;;;;;24.85;14.48;;;4.10;99.90;;;;;;5055023;28;20029;-69
2021/12/10 07:55:56;;;;;;;27.33;15.07;;;4.10;99.90;;;;;;5055021;28;20072;-69
2021/12/10 07:58:23;;;;;;;31.50;15.30;;;4.00;99.90;;;;;;5057204;28;20021;-70
2021/12/10 08:00:50;;;;;;;32.88;17.20;;;4.00;99.90;;;;;;5059075;28;20028;-70
2021/12/10 08:03:15;;;;;;;28.58;14.30;;;4.00;99.90;;;;;;5059712;28;20463;-70
2021/12/10 08:05:42;;;;;;;29.77;15.40;;;3.90;99.90;;;;;;5059823;28;20037;-69
2021/12/10 08:08:09;;;;;;;29.38;15.77;;;3.90;99.90;;;;;;5042495;28;20103;-72
2021/12/10 08:10:38;;;;;;;31.33;15.48;;;4.00;99.90;;;;;;5062170;28;20048;-70
2021/12/10 08:13:04;;;;;;;30.55;15.27;;;4.00;99.90;;;;;;5063878;28;20025;-70
2021/12/10 08:15:30;;;;;;;30.63;15.23;;;4.10;99.90;;;;;;5064882;28;20021;-70
2021/12/10 08:17:56;;;;;;;33.03;15.88;;;4.00;99.90;;;;;;5044624;28;20033;-69
2021/12/10 08:20:24;;;;;;;36.25;18.25;;;4.00;99.90;;;;;;5058700;28;20471;-69
2021/12/10 08:22:51;;;;;;;34.20;17.05;;;4.00;99.90;;;;;;5060860;28;20033;-70
2021/12/10 08:25:19;;;;;;;33.80;16.77;;;4.00;99.90;;;;;;5059157;28;20204;-70
2021/12/10 08:27:45;;;;;;;35.47;16.38;;;4.00;99.90;;;;;;5058420;28;20112;-70
2021/12/10 08:30:14;;;;;;;35.00;17.05;;;4.00;99.90;;;;;;5058471;28;20029;-71
2021/12/10 08:32:40;;;;;;;33.63;16.17;;;3.90;99.90;;;;;;5057935;28;20025;-71
2021/12/10 08:35:09;;;;;;;31.42;15.77;;;4.00;99.90;;;;;;5039873;28;20017;-71
2021/12/10 08:37:35;;;;;;;31.73;15.63;;;4.00;99.90;;;;;;5058020;28;20398;-70
2021/12/10 08:40:01;;;;;;;32.15;16.45;;;3.90;99.90;;;;;;5039441;28;20025;-69
2021/12/10 08:42:27;;;;;;;33.67;16.23;;;3.90;99.90;;;;;;5058006;28;20087;-70
2021/12/10 08:44:53;;;;;;;31.13;15.90;;;3.90;99.90;;;;;;5058637;28;20076;-69
2021/12/10 08:47:18;;;;;;;30.05;16.38;;;3.90;99.90;;;;;;5039692;28;20139;-70
2021/12/10 08:49:44;;;;;;;37.00;16.45;;;3.90;99.90;;;;;;5039762;28;20120;-71
2021/12/10 08:52:10;;;;;;;30.10;15.57;;;3.90;99.90;;;;;;5039748;28;20366;-70
2021/12/10 08:54:38;;;;;;;33.63;15.55;;;3.90;99.90;;;;;;5059000;28;20025;-71
2021/12/10 08:57:05;;;;;;;32.95;15.50;;;3.90;99.90;;;;;;5058877;28;20354;-67
2021/12/10 08:59:31;;;;;;;37.05;15.57;;;3.90;99.90;;;;;;5057957;28;20389;-69
2021/12/10 09:02:00;;;;;;;29.50;15.07;;;4.00;99.90;;;;;;5058981;28;20017;-69
2021/12/10 09:04:29;;;;;;;34.42;16.20;;;4.00;99.90;;;;;;5059387;28;20457;-69
2021/12/10 09:07:00;;;;;;;28.52;15.60;;;4.00;99.90;;;;;;5039875;28;20440;-69
2021/12/10 09:09:27;;;;;;;33.67;15.80;;;4.00;99.90;;;;;;5038616;28;20025;-69
2021/12/10 09:11:55;;;;;;;31.70;16.70;;;4.00;99.90;;;;;;5057575;28;20028;-70
2021/12/10 09:14:25;;;;;;;33.40;15.23;;;4.00;99.90;;;;;;5057681;28;20097;-69
2021/12/10 09:16:50;;;;;;;31.45;15.77;;;4.10;99.90;;;;;;5039901;28;20023;-70
2021/12/10 09:19:17;;;;;;;32.75;17.00;;;4.10;99.90;;;;;;5058729;28;20099;-71
2021/12/10 09:21:44;;;;;;;31.02;15.27;;;4.10;99.90;;;;;;5058116;28;20017;-72
2021/12/10 09:24:12;;;;;;;33.30;15.48;;;4.10;99.90;;;;;;5058103;28;20036;-69
2021/12/10 09:26:41;;;;;;;31.02;14.57;;;4.10;99.90;;;;;;5057814;28;20036;-69
2021/12/10 09:29:10;;;;;;;31.20;14.65;;;4.10;99.90;;;;;;5039620;28;20033;-69
2021/12/10 09:31:38;;;;;;;32.35;14.23;;;4.20;99.90;;;;;;5057604;28;20159;-69
2021/12/10 09:34:05;;;;;;;30.88;15.80;;;4.20;99.90;;;;;;5039757;28;20057;-69
2021/12/10 09:36:31;;;;;;;33.88;15.38;;;4.20;99.90;;;;;;5040432;28;20017;-69
2021/12/10 09:38:56;;;;;;;31.30;14.32;;;4.20;99.90;;;;;;5059137;28;20082;-70
2021/12/10 09:41:25;;;;;;;32.05;14.75;;;4.30;99.90;;;;;;5059469;28;20021;-69
2021/12/10 09:43:51;;;;;;;33.22;14.93;;;4.30;99.90;;;;;;5060054;28;20036;-72
2021/12/10 09:46:16;;;;;;;34.53;15.43;;;4.40;99.90;;;;;;5059004;28;20500;-70
2021/12/10 09:48:44;;;;;;;34.67;15.40;;;4.40;99.90;;;;;;5059069;28;20060;-70
2021/12/10 09:51:17;;;;;;;28.55;13.88;;;4.40;99.90;;;;;;5058006;28;20033;-70
2021/12/10 09:53:45;;;;;;;31.65;14.60;;;4.50;99.90;;;;;;5057799;28;20020;-70
2021/12/10 09:56:12;;;;;;;25.92;13.63;;;4.50;99.90;;;;;;5060196;28;20459;-70
2021/12/10 09:58:38;;;;;;;25.15;12.15;;;4.50;99.90;;;;;;5062102;28;20029;-72
2021/12/10 10:01:10;;;;;;;30.55;13.68;;;4.50;99.90;;;;;;5057834;28;20079;-71
2021/12/10 10:03:41;;;;;;;26.48;13.75;;;4.50;99.90;;;;;;5057829;28;20032;-70
2021/12/10 10:06:08;;;;;;;24.88;12.48;;;4.40;99.90;;;;;;5056865;28;20101;-70
2021/12/10 10:08:34;;;;;;;29.95;14.70;;;4.40;99.90;;;;;;5044176;28;20040;-70
2021/12/10 10:11:10;;;;;;;29.02;14.35;;;4.40;99.90;;;;;;5041042;28;20194;-70
2021/12/10 10:13:38;;;;;;;30.50;15.35;;;4.50;99.90;;;;;;5057374;28;20099;-71
2021/12/10 10:16:05;;;;;;;26.85;13.32;;;4.60;99.90;;;;;;5057933;28;20048;-71
2021/12/10 10:18:34;;;;;;;27.23;14.23;;;4.60;99.90;;;;;;5057940;28;20047;-70
2021/12/10 10:21:05;;;;;;;30.00;13.20;;;4.60;99.90;;;;;;5057961;28;20080;-70
2021/12/10 10:23:31;;;;;;;25.52;12.27;;;4.70;99.90;;;;;;5039993;28;20036;-69
2021/12/10 10:26:00;;;;;;;23.15;12.88;;;4.70;99.90;;;;;;5057787;28;20025;-70
2021/12/10 10:28:26;;;;;;;25.58;12.35;;;4.80;99.90;;;;;;5043689;28;20032;-71
2021/12/10 10:30:59;;;;;;;22.83;12.43;;;4.80;99.90;;;;;;5063589;28;20033;-72
2021/12/10 10:33:26;;;;;;;21.33;12.07;;;4.90;99.90;;;;;;5060141;28;20025;-70
2021/12/10 10:35:57;;;;;;;22.98;11.73;;;5.00;99.90;;;;;;5043315;28;20032;-71
2021/12/10 10:38:24;;;;;;;25.65;12.30;;;5.00;99.90;;;;;;5042120;28;20021;-70
2021/12/10 10:40:57;;;;;;;23.20;11.70;;;5.10;99.90;;;;;;5043701;28;20063;-71
2021/12/10 10:43:25;;;;;;;21.60;10.52;;;5.20;99.90;;;;;;5060297;28;20051;-71
2021/12/10 10:45:51;;;;;;;26.92;12.48;;;5.30;99.90;;;;;;5043106;28;20025;-71
2021/12/10 10:48:18;;;;;;;19.05;11.40;;;5.40;99.90;;;;;;5059513;28;20167;-71
2021/12/10 10:51:07;;;;;;;23.33;11.70;;;5.40;99.90;;;;;;5060116;28;20057;-71
2021/12/10 10:53:48;;;;;;;21.55;10.73;;;5.50;99.90;;;;;;5042655;28;20025;-71
2021/12/10 10:56:18;;;;;;;22.98;11.50;;;5.60;99.90;;;;;;5042410;28;20021;-71
2021/12/10 10:58:50;;;;;;;24.00;11.43;;;5.50;99.90;;;;;;5043672;28;20064;-71
2021/12/10 11:01:24;;;;;;;21.20;11.07;;;5.50;99.90;;;;;;5061993;28;20316;-71
2021/12/10 11:03:59;;;;;;;19.25;10.32;;;5.40;99.90;;;;;;5042287;28;20028;-70
2021/12/10 11:06:37;;;;;;;24.42;11.93;;;5.40;99.90;;;;;;5068934;23;20055;-70
2021/12/10 11:09:08;;;;;;;20.30;11.38;;;5.50;99.90;;;;;;5074015;28;20066;-69
2021/12/10 11:11:35;;;;;;;22.27;11.50;;;5.50;99.90;;;;;;5072583;28;20024;-70
2021/12/10 11:14:16;;;;;;;21.25;10.80;;;5.40;99.90;;;;;;5054721;28;20032;-70
2021/12/10 11:16:45;;;;;;;23.13;11.37;;;5.40;99.90;;;;;;5072415;28;20103;-70
2021/12/10 11:19:17;;;;;;;23.25;11.27;;;5.40;99.90;;;;;;5072459;28;20291;-70
2021/12/10 11:21:53;;;;;;;21.30;11.55;;;5.50;99.90;;;;;;5074381;28;20025;-70
2021/12/10 11:24:21;;;;;;;18.13;10.27;;;5.50;99.90;;;;;;5078585;28;20021;-70
2021/12/10 11:26:51;;;;;;;20.77;12.07;;;5.50;99.90;;;;;;5072390;28;20020;-70
2021/12/10 11:29:40;;;;;;;21.25;10.70;;;5.60;99.90;;;;;;5072781;28;20345;-69
2021/12/10 11:32:36;;;;;;;17.60;9.82;;;5.70;99.90;;;;;;5062822;28;20039;-70
2021/12/10 11:35:21;;;;;;;25.58;11.68;;;5.60;99.90;;;;;;5078100;28;20143;-70
2021/12/10 11:37:52;;;;;;;18.85;10.32;;;5.70;99.90;;;;;;5057977;28;20032;-70
2021/12/10 11:40:27;;;;;;;26.63;11.98;;;5.80;99.90;;;;;;5076480;28;20033;-70
2021/12/10 11:43:01;;;;;;;26.02;12.65;;;5.80;99.90;;;;;;5076345;28;20073;-70
2021/12/10 11:45:45;;;;;;;31.35;14.93;;;5.90;99.90;;;;;;5076457;28;20358;-70
2021/12/10 11:48:25;;;;;;;23.90;12.32;;;5.90;99.90;;;;;;5076055;28;20485;-69
2021/12/10 11:51:19;;;;;;;23.23;11.52;;;5.90;99.90;;;;;;5076172;28;20032;-70
2021/12/10 11:53:55;;;;;;;22.88;11.05;;;5.90;99.90;;;;;;5075421;28;20036;-70
2021/12/10 11:56:22;;;;;;;18.52;10.00;;;5.90;99.90;;;;;;5075666;28;20052;-70
2021/12/10 11:59:05;;;;;;;18.45;10.20;;;6.00;99.90;;;;;;5075993;28;20040;-70
2021/12/10 12:01:33;;;;;;;20.85;9.30;;;6.00;99.90;;;;;;5075834;28;20077;-70
2021/12/10 12:04:46;;;;;;;21.45;10.95;;;6.10;99.90;;;;;;5075778;28;20029;-70
2021/12/10 12:07:33;;;;;;;17.95;9.95;;;6.10;99.90;;;;;;5010867;28;20048;-70
2021/12/10 12:10:22;;;;;;;21.55;10.15;;;6.10;99.90;;;;;;5037350;28;20028;-70
2021/12/10 12:12:52;;;;;;;20.95;9.98;;;6.10;99.90;;;;;;5055735;28;20025;-69
2021/12/10 12:15:30;;;;;;;18.20;10.00;;;6.10;99.90;;;;;;5055270;28;20103;-69
2021/12/10 12:17:59;;;;;;;18.42;9.82;;;6.10;99.90;;;;;;5055174;28;20096;-70
2021/12/10 12:20:44;;;;;;;15.98;8.80;;;6.10;99.90;;;;;;5055388;28;20017;-69
2021/12/10 12:24:57;;;;;;;22.23;9.68;;;6.10;99.90;;;;;;5055283;28;20017;-70
2021/12/10 12:26:28;;;;;;;15.40;8.07;;;6.20;99.90;;;;;;5030563;28;20037;-70
2021/12/10 12:29:04;;;;;;;15.10;8.73;;;6.30;99.90;;;;;;5054910;28;20048;-70
2021/12/10 12:31:33;;;;;;;15.70;8.43;;;6.40;99.90;;;;;;5037564;28;20033;-69
2021/12/10 12:34:05;;;;;;;13.70;8.13;;;6.50;99.90;;;;;;5054972;28;20123;-70
2021/12/10 12:36:33;;;;;;;14.68;7.65;;;6.60;99.90;;;;;;5054993;28;20021;-70
2021/12/10 12:38:59;;;;;;;14.70;7.70;;;6.60;99.90;;;;;;5055003;28;20025;-70
2021/12/10 12:41:28;;;;;;;16.52;9.30;;;6.60;99.90;;;;;;5055550;28;20421;-70
2021/12/10 12:44:13;;;;;;;16.45;8.95;;;6.60;99.90;;;;;;5056241;28;20027;-70
2021/12/10 12:47:25;;;;;;;12.70;7.22;;;6.50;99.90;;;;;;5058397;28;20021;-71
2021/12/10 12:49:57;;;;;;;9.95;6.22;;;6.30;99.90;;;;;;5045400;28;20037;-70
2021/12/10 12:52:44;;;;;;;11.90;6.55;;;6.20;99.90;;;;;;5036665;28;20017;-69
2021/12/10 12:55:16;;;;;;;12.23;6.70;;;6.10;99.90;;;;;;5054209;28;20104;-69
2021/12/10 12:57:50;;;;;;;10.45;6.05;;;6.10;99.90;;;;;;5054563;28;20024;-70
2021/12/10 13:00:25;;;;;;;13.38;7.72;;;6.00;99.90;;;;;;5054404;28;20021;-70
2021/12/10 13:02:56;;;;;;;12.52;7.57;;;5.90;99.90;;;;;;5054417;28;20035;-69
2021/12/10 13:05:53;;;;;;;15.00;6.82;;;5.90;99.90;;;;;;5054589;28;20036;-70
2021/12/10 13:08:23;;;;;;;14.40;7.20;;;5.80;99.90;;;;;;5042390;28;20397;-70
2021/12/10 13:11:12;;;;;;;13.55;6.97;;;5.80;99.90;;;;;;5054115;28;20480;-70
2021/12/10 13:13:46;;;;;;;12.88;7.07;;;5.70;99.90;;;;;;5036185;28;20051;-70